Flight Track Log - Related Links

Times and Time Zones

All times are in EDT time to prevent confusion due to time zone crossing. See the C-GIRL flight status page for this flight to view local times or setup timezone preferences in your user account.

Time Position Orientation Groundspeed Altitude Reporting Facility
EDT Latitude Longitude Course Direction KTS MPH feet Rate Location/Type
Sun 12:10:26 PM 45.4833 -73.4667 13° North 180 207 3,000  Level Montreal Center
Sun 12:11:26 PM 45.4333 -73.5167 215° Southwest 200 230 3,000  Level Montreal Center
Sun 12:12:26 PM 45.3667 -73.4833 161° South 200 230 3,000  Level Montreal Center
Sun 12:13:26 PM 45.3333 -73.5167 215° Southwest 180 207 3,000  Level Montreal Center
Sun 12:14:26 PM 45.2667 -73.5333 190° South 190 219 3,000 -50 Level Montreal Center
Sun 12:15:00 PM 45.9216 -73.2865 13° North  Level Estimated
Sun 12:15:26 PM 45.2167 -73.5500 193° South 200 230 2,900  Level Montreal Center
Sun 12:16:26 PM 45.1667 -73.5167 155° Southeast 190 219 3,000 50 Climbing Montreal Center
Sun 12:17:26 PM 45.1333 -73.4833 145° Southeast 170 196 3,000 -50 Level Montreal Center
Sun 12:18:26 PM 45.1333 -73.4333 90° East 160 184 2,900 -100 Descending Montreal Center
Sun 12:19:26 PM 45.1667 -73.3833 47° Northeast 160 184 2,800 -350 Descending Montreal Center
Sun 12:20:26 PM 45.2167 -73.3500 25° Northeast 170 196 2,200 -750 Descending Montreal Center
Sun 12:21:26 PM 45.2333 -73.3333 35° Northeast 140 161 1,300 -700 Descending Montreal Center
Sun 12:22:26 PM 45.2667 -73.2833 47° Northeast 150 173 800 -350 Descending Montreal Center
Sun 12:23:26 PM 45.3000 -73.2500 35° Northeast 150 173 600 -50 Descending Montreal Center
Sun 12:24:26 PM 45.2833 -73.2333 145° Southeast 110 127 700  Climbing Montreal Center
Sun 12:25:26 PM 45.2833 -73.2833 270° West 120 138 600 1,200 Descending Montreal Center
Sun 12:26:26 PM 45.3167 -73.3167 325° Northwest 180 207 3,100 1,700 Climbing Montreal Center
Sun 12:27:26 PM 45.3667 -73.3500 335° Northwest 190 219 4,000 450 Climbing Montreal Center
Sun 12:28:26 PM 45.4000 -73.3833 325° Northwest 180 207 4,000  Level Montreal Center
Sun 12:29:26 PM 45.4500 -73.4333 325° Northwest 170 196 4,000 -50 Level Montreal Center
Sun 12:30:26 PM 45.5000 -73.4500 347° North 200 230 3,900 -250 Descending Montreal Center
Sun 12:31:26 PM 45.5500 -73.5000 325° Northwest 200 230 3,500 -500 Descending Montreal Center
Sun 12:32:26 PM 45.5833 -73.5500 314° West 180 207 2,900 -600 Descending Montreal Center
Sun 12:33:26 PM 45.5333 -73.6000 215° Southwest 170 196 2,300 -700 Descending Montreal Center
Sun 12:34:26 PM 45.5167 -73.6500 245° Southwest 130 150 1,500 -750 Descending Montreal Center
Sun 12:35:26 PM 45.4833 -73.6667 199° South 110 127 800 -650 Descending Montreal Center
Sun 12:36:26 PM 45.4667 -73.7000 235° Southwest 110 127 200 -350 Descending Montreal Center
Sun 12:37:26 PM 45.4667 -73.7167 270° West 10 12 100 -100 Descending Montreal Center
Sun 12:39:00 PM 45.4667 -73.7333 229° Southwest  Level FlightAware Approximate
Sun 12:46:00 PM 45.7413 -73.6041 229° Southwest  Level Estimated
Sun 12:47:00 PM 45.7805 -73.5855 229° Southwest  Level Estimated
Sun 12:48:00 PM 45.8198 -73.5669 229° Southwest  Level Estimated
Sun 12:49:00 PM 45.8590 -73.5483 229° Southwest  Level Estimated
Sun 12:50:00 PM 45.8982 -73.5296 229° Southwest  Level Estimated
Sun 12:51:00 PM 45.9374 -73.5110 229° Southwest  Level Estimated
Sun 12:52:00 PM 45.9766 -73.4923 229° Southwest  Level Estimated
Sun 12:53:00 PM 46.0158 -73.4735 229° Southwest  Level Estimated
Sun 12:54:00 PM 46.0550 -73.4548 229° Southwest  Level Estimated
Sun 12:55:00 PM 46.0942 -73.4360 229° Southwest  Level Estimated
Sun 12:56:00 PM 46.1334 -73.4172 229° Southwest  Level Estimated
Sun 12:57:00 PM 46.1726 -73.3984 229° Southwest  Level Estimated
Sun 12:58:00 PM 46.2118 -73.3795 229° Southwest  Level Estimated
Sun 12:59:00 PM 46.2510 -73.3606 229° Southwest  Level Estimated
Sun 01:00:00 PM 46.2902 -73.3417 229° Southwest  Level Estimated
Sun 01:01:00 PM 46.3293 -73.3228 229° Southwest  Level Estimated
Sun 01:02:00 PM 46.3685 -73.3038 229° Southwest  Level Estimated
Sun 01:03:00 PM 46.4077 -73.2848 229° Southwest  Level Estimated
Sun 01:04:00 PM 46.4469 -73.2658 229° Southwest  Level Estimated
Sun 01:05:00 PM 46.4860 -73.2467 229° Southwest  Level Estimated
Sun 01:06:00 PM 46.5252 -73.2277 229° Southwest  Level Estimated
Sun 01:07:00 PM 46.5644 -73.2085 229° Southwest  Level Estimated
Sun 01:08:00 PM 46.6035 -73.1894 229° Southwest  Level Estimated
Sun 01:09:00 PM 46.6427 -73.1703 229° Southwest  Level Estimated
Sun 01:10:00 PM 46.6818 -73.1511 229° Southwest  Level Estimated
Sun 01:11:00 PM 46.7210 -73.1319 229° Southwest  Level Estimated
Sun 01:12:00 PM 46.7601 -73.1126 229° Southwest  Level Estimated
Sun 01:13:00 PM 46.7993 -73.0933 229° Southwest  Level Estimated
Sun 01:14:00 PM 46.8384 -73.0740 229° Southwest  Level Estimated
Sun 01:15:00 PM 46.8776 -73.0547 229° Southwest  Level Estimated
Sun 01:16:00 PM 46.9167 -73.0353 229° Southwest  Level Estimated
Sun 01:17:00 PM 46.9558 -73.0160 229° Southwest  Level Estimated
Sun 01:18:00 PM 46.9949 -72.9966 229° Southwest  Level Estimated
Sun 01:19:00 PM 47.0341 -72.9771 229° Southwest  Level Estimated
Sun 01:20:00 PM 47.0732 -72.9576 229° Southwest  Level Estimated
Sun 01:21:00 PM 47.1123 -72.9381 229° Southwest  Level Estimated
Sun 01:22:00 PM 47.1514 -72.9186 229° Southwest  Level Estimated

Login

Don't have an account? Register now (free) for customized features, flight alerts, and more!